sensor_id;sensor_type;location;lat;lon;timestamp;P1;durP1;ratioP1;P2;durP2;ratioP2
64208;SDS011;50527;52.414;13.226;2024-01-16T00:01:05;6.13;;;0.52;;
64208;SDS011;50527;52.414;13.226;2024-01-16T00:03:31;2.88;;;0.30;;
64208;SDS011;50527;52.414;13.226;2024-01-16T00:05:57;1.10;;;0.20;;
64208;SDS011;50527;52.414;13.226;2024-01-16T00:08:23;3.80;;;0.22;;
64208;SDS011;50527;52.414;13.226;2024-01-16T00:10:48;0.08;;;0.08;;
64208;SDS011;50527;52.414;13.226;2024-01-16T00:13:15;0.32;;;0.20;;
64208;SDS011;50527;52.414;13.226;2024-01-16T00:15:42;0.82;;;0.20;;
64208;SDS011;50527;52.414;13.226;2024-01-16T00:18:07;0.60;;;0.17;;
64208;SDS011;50527;52.414;13.226;2024-01-16T00:20:33;1.20;;;0.35;;
64208;SDS011;50527;52.414;13.226;2024-01-16T00:22:59;0.38;;;0.13;;
64208;SDS011;50527;52.414;13.226;2024-01-16T00:25:25;1.02;;;0.20;;
64208;SDS011;50527;52.414;13.226;2024-01-16T00:27:51;0.70;;;0.20;;
64208;SDS011;50527;52.414;13.226;2024-01-16T00:30:16;1.63;;;0.05;;
64208;SDS011;50527;52.414;13.226;2024-01-16T00:32:42;1.83;;;0.47;;
64208;SDS011;50527;52.414;13.226;2024-01-16T00:35:08;2.95;;;0.10;;
64208;SDS011;50527;52.414;13.226;2024-01-16T00:37:35;1.50;;;0.50;;
64208;SDS011;50527;52.414;13.226;2024-01-16T00:40:02;0.70;;;0.15;;
64208;SDS011;50527;52.414;13.226;2024-01-16T00:42:29;0.82;;;0.10;;
64208;SDS011;50527;52.414;13.226;2024-01-16T00:44:56;0.47;;;0.10;;
64208;SDS011;50527;52.414;13.226;2024-01-16T00:47:22;0.63;;;0.20;;
64208;SDS011;50527;52.414;13.226;2024-01-16T00:49:47;0.20;;;0.10;;
64208;SDS011;50527;52.414;13.226;2024-01-16T00:52:13;0.70;;;0.20;;
64208;SDS011;50527;52.414;13.226;2024-01-16T00:54:38;0.10;;;0.10;;
64208;SDS011;50527;52.414;13.226;2024-01-16T00:57:05;0.30;;;0.15;;
64208;SDS011;50527;52.414;13.226;2024-01-16T00:59:30;2.03;;;0.20;;
64208;SDS011;50527;52.414;13.226;2024-01-16T01:01:56;1.25;;;0.30;;
64208;SDS011;50527;52.414;13.226;2024-01-16T01:04:21;0.15;;;0.05;;
64208;SDS011;50527;52.414;13.226;2024-01-16T01:06:47;0.40;;;0.10;;
64208;SDS011;50527;52.414;13.226;2024-01-16T01:09:12;0.60;;;0.20;;
64208;SDS011;50527;52.414;13.226;2024-01-16T01:11:38;3.72;;;0.30;;
64208;SDS011;50527;52.414;13.226;2024-01-16T01:14:04;0.77;;;0.20;;
64208;SDS011;50527;52.414;13.226;2024-01-16T01:16:29;1.35;;;0.38;;
64208;SDS011;50527;52.414;13.226;2024-01-16T01:18:55;0.25;;;0.10;;
64208;SDS011;50527;52.414;13.226;2024-01-16T01:21:21;1.10;;;0.20;;
64208;SDS011;50527;52.414;13.226;2024-01-16T01:23:46;0.88;;;0.17;;
64208;SDS011;50527;52.414;13.226;2024-01-16T01:26:12;2.13;;;0.20;;
64208;SDS011;50527;52.414;13.226;2024-01-16T01:28:39;1.00;;;0.30;;
64208;SDS011;50527;52.414;13.226;2024-01-16T01:31:05;3.63;;;0.30;;
64208;SDS011;50527;52.414;13.226;2024-01-16T01:33:33;0.20;;;0.10;;
64208;SDS011;50527;52.414;13.226;2024-01-16T01:35:58;0.60;;;0.20;;
64208;SDS011;50527;52.414;13.226;2024-01-16T01:38:24;0.38;;;0.20;;
64208;SDS011;50527;52.414;13.226;2024-01-16T01:40:49;0.40;;;0.00;;
64208;SDS011;50527;52.414;13.226;2024-01-16T01:45:46;0.65;;;0.10;;
64208;SDS011;50527;52.414;13.226;2024-01-16T01:48:13;0.10;;;0.03;;
64208;SDS011;50527;52.414;13.226;2024-01-16T01:50:39;0.10;;;0.00;;
64208;SDS011;50527;52.414;13.226;2024-01-16T01:53:04;0.75;;;0.28;;
64208;SDS011;50527;52.414;13.226;2024-01-16T01:55:30;3.13;;;0.40;;
64208;SDS011;50527;52.414;13.226;2024-01-16T01:57:55;1.08;;;0.10;;
64208;SDS011;50527;52.414;13.226;2024-01-16T02:00:21;0.85;;;0.20;;
64208;SDS011;50527;52.414;13.226;2024-01-16T02:02:47;3.35;;;0.75;;
64208;SDS011;50527;52.414;13.226;2024-01-16T02:05:13;1.30;;;0.22;;
64208;SDS011;50527;52.414;13.226;2024-01-16T02:07:39;0.52;;;0.10;;
64208;SDS011;50527;52.414;13.226;2024-01-16T02:10:04;0.10;;;0.03;;
64208;SDS011;50527;52.414;13.226;2024-01-16T02:12:30;5.93;;;0.22;;
64208;SDS011;50527;52.414;13.226;2024-01-16T02:14:56;0.00;;;0.00;;
64208;SDS011;50527;52.414;13.226;2024-01-16T02:17:21;0.70;;;0.10;;
64208;SDS011;50527;52.414;13.226;2024-01-16T02:19:47;0.10;;;0.00;;
64208;SDS011;50527;52.414;13.226;2024-01-16T02:22:15;0.08;;;0.08;;
64208;SDS011;50527;52.414;13.226;2024-01-16T02:24:44;0.00;;;0.00;;
64208;SDS011;50527;52.414;13.226;2024-01-16T02:27:10;0.00;;;0.00;;
64208;SDS011;50527;52.414;13.226;2024-01-16T02:29:40;0.15;;;0.00;;
64208;SDS011;50527;52.414;13.226;2024-01-16T02:32:09;0.30;;;0.10;;
64208;SDS011;50527;52.414;13.226;2024-01-16T02:34:38;0.00;;;0.00;;
64208;SDS011;50527;52.414;13.226;2024-01-16T02:37:04;0.30;;;0.10;;
64208;SDS011;50527;52.414;13.226;2024-01-16T02:39:29;0.30;;;0.00;;
64208;SDS011;50527;52.414;13.226;2024-01-16T02:41:55;0.63;;;0.50;;
64208;SDS011;50527;52.414;13.226;2024-01-16T02:44:21;0.28;;;0.10;;
64208;SDS011;50527;52.414;13.226;2024-01-16T02:46:47;0.47;;;0.30;;
64208;SDS011;50527;52.414;13.226;2024-01-16T02:49:12;1.63;;;0.30;;
64208;SDS011;50527;52.414;13.226;2024-01-16T02:51:38;3.22;;;0.30;;
64208;SDS011;50527;52.414;13.226;2024-01-16T02:54:05;0.80;;;0.25;;
64208;SDS011;50527;52.414;13.226;2024-01-16T02:56:31;0.30;;;0.10;;
64208;SDS011;50527;52.414;13.226;2024-01-16T02:58:57;0.15;;;0.10;;
64208;SDS011;50527;52.414;13.226;2024-01-16T03:01:22;0.65;;;0.10;;
64208;SDS011;50527;52.414;13.226;2024-01-16T03:03:48;0.08;;;0.03;;
64208;SDS011;50527;52.414;13.226;2024-01-16T03:06:23;0.32;;;0.13;;
64208;SDS011;50527;52.414;13.226;2024-01-16T03:08:49;0.32;;;0.20;;
64208;SDS011;50527;52.414;13.226;2024-01-16T03:11:16;0.32;;;0.05;;
64208;SDS011;50527;52.414;13.226;2024-01-16T03:13:42;0.20;;;0.00;;
64208;SDS011;50527;52.414;13.226;2024-01-16T03:16:08;0.47;;;0.20;;
64208;SDS011;50527;52.414;13.226;2024-01-16T03:18:36;5.13;;;0.30;;
64208;SDS011;50527;52.414;13.226;2024-01-16T03:21:03;0.70;;;0.20;;
64208;SDS011;50527;52.414;13.226;2024-01-16T03:23:32;0.43;;;0.15;;
64208;SDS011;50527;52.414;13.226;2024-01-16T03:25:58;0.47;;;0.17;;
64208;SDS011;50527;52.414;13.226;2024-01-16T03:28:23;0.10;;;0.00;;
64208;SDS011;50527;52.414;13.226;2024-01-16T03:30:49;0.10;;;0.10;;
64208;SDS011;50527;52.414;13.226;2024-01-16T03:33:14;0.30;;;0.20;;
64208;SDS011;50527;52.414;13.226;2024-01-16T03:35:40;1.33;;;0.40;;
64208;SDS011;50527;52.414;13.226;2024-01-16T03:38:05;0.20;;;0.05;;
64208;SDS011;50527;52.414;13.226;2024-01-16T03:40:31;0.77;;;0.10;;
64208;SDS011;50527;52.414;13.226;2024-01-16T03:42:59;0.47;;;0.08;;
64208;SDS011;50527;52.414;13.226;2024-01-16T03:45:25;0.73;;;0.20;;
64208;SDS011;50527;52.414;13.226;2024-01-16T03:47:51;2.30;;;0.20;;
64208;SDS011;50527;52.414;13.226;2024-01-16T03:50:16;1.45;;;0.30;;
64208;SDS011;50527;52.414;13.226;2024-01-16T03:52:42;0.88;;;0.20;;
64208;SDS011;50527;52.414;13.226;2024-01-16T03:55:07;0.60;;;0.05;;
64208;SDS011;50527;52.414;13.226;2024-01-16T03:57:33;0.98;;;0.03;;
64208;SDS011;50527;52.414;13.226;2024-01-16T03:59:58;2.08;;;0.30;;
64208;SDS011;50527;52.414;13.226;2024-01-16T04:02:24;0.10;;;0.00;;
64208;SDS011;50527;52.414;13.226;2024-01-16T04:04:49;2.00;;;0.20;;
64208;SDS011;50527;52.414;13.226;2024-01-16T04:07:15;1.40;;;0.30;;
64208;SDS011;50527;52.414;13.226;2024-01-16T04:09:42;0.32;;;0.10;;
64208;SDS011;50527;52.414;13.226;2024-01-16T04:12:08;0.75;;;0.17;;
64208;SDS011;50527;52.414;13.226;2024-01-16T04:14:33;0.98;;;0.30;;
64208;SDS011;50527;52.414;13.226;2024-01-16T04:16:59;0.10;;;0.10;;
64208;SDS011;50527;52.414;13.226;2024-01-16T04:19:25;0.63;;;0.20;;
64208;SDS011;50527;52.414;13.226;2024-01-16T04:21:50;0.28;;;0.15;;
64208;SDS011;50527;52.414;13.226;2024-01-16T04:24:16;3.78;;;0.28;;
64208;SDS011;50527;52.414;13.226;2024-01-16T04:26:41;0.98;;;0.35;;
64208;SDS011;50527;52.414;13.226;2024-01-16T04:29:07;0.65;;;0.25;;
64208;SDS011;50527;52.414;13.226;2024-01-16T04:31:38;0.10;;;0.00;;
64208;SDS011;50527;52.414;13.226;2024-01-16T04:34:05;0.10;;;0.00;;
64208;SDS011;50527;52.414;13.226;2024-01-16T04:36:31;0.80;;;0.13;;
64208;SDS011;50527;52.414;13.226;2024-01-16T04:38:56;1.45;;;0.20;;
64208;SDS011;50527;52.414;13.226;2024-01-16T04:41:22;0.32;;;0.10;;
64208;SDS011;50527;52.414;13.226;2024-01-16T04:43:47;0.00;;;0.00;;
64208;SDS011;50527;52.414;13.226;2024-01-16T04:46:14;2.45;;;0.22;;
64208;SDS011;50527;52.414;13.226;2024-01-16T04:48:41;0.57;;;0.28;;
64208;SDS011;50527;52.414;13.226;2024-01-16T04:51:06;0.28;;;0.10;;
64208;SDS011;50527;52.414;13.226;2024-01-16T04:53:32;0.82;;;0.25;;
64208;SDS011;50527;52.414;13.226;2024-01-16T04:55:58;2.38;;;0.32;;
64208;SDS011;50527;52.414;13.226;2024-01-16T04:58:24;0.10;;;0.00;;
64208;SDS011;50527;52.414;13.226;2024-01-16T05:00:49;0.73;;;0.20;;
64208;SDS011;50527;52.414;13.226;2024-01-16T05:03:15;0.52;;;0.20;;
64208;SDS011;50527;52.414;13.226;2024-01-16T05:05:40;0.60;;;0.25;;
64208;SDS011;50527;52.414;13.226;2024-01-16T05:08:06;0.57;;;0.13;;
64208;SDS011;50527;52.414;13.226;2024-01-16T05:10:31;0.10;;;0.10;;
64208;SDS011;50527;52.414;13.226;2024-01-16T05:12:57;0.03;;;0.00;;
64208;SDS011;50527;52.414;13.226;2024-01-16T05:15:23;0.45;;;0.10;;
64208;SDS011;50527;52.414;13.226;2024-01-16T05:17:48;0.30;;;0.15;;
64208;SDS011;50527;52.414;13.226;2024-01-16T05:20:14;0.10;;;0.00;;
64208;SDS011;50527;52.414;13.226;2024-01-16T05:22:39;2.97;;;0.20;;
64208;SDS011;50527;52.414;13.226;2024-01-16T05:25:05;0.43;;;0.03;;
64208;SDS011;50527;52.414;13.226;2024-01-16T05:27:34;0.50;;;0.20;;
64208;SDS011;50527;52.414;13.226;2024-01-16T05:29:59;0.50;;;0.28;;
64208;SDS011;50527;52.414;13.226;2024-01-16T05:32:25;1.60;;;0.30;;
64208;SDS011;50527;52.414;13.226;2024-01-16T05:34:51;0.40;;;0.20;;
64208;SDS011;50527;52.414;13.226;2024-01-16T05:37:17;0.40;;;0.13;;
64208;SDS011;50527;52.414;13.226;2024-01-16T05:39:43;0.95;;;0.13;;
64208;SDS011;50527;52.414;13.226;2024-01-16T05:42:09;1.65;;;0.20;;
64208;SDS011;50527;52.414;13.226;2024-01-16T05:44:36;0.47;;;0.20;;
64208;SDS011;50527;52.414;13.226;2024-01-16T05:47:01;0.68;;;0.10;;
64208;SDS011;50527;52.414;13.226;2024-01-16T05:49:27;0.60;;;0.10;;
64208;SDS011;50527;52.414;13.226;2024-01-16T05:51:52;0.20;;;0.10;;
64208;SDS011;50527;52.414;13.226;2024-01-16T05:54:18;1.67;;;0.47;;
64208;SDS011;50527;52.414;13.226;2024-01-16T05:56:43;3.60;;;0.20;;
64208;SDS011;50527;52.414;13.226;2024-01-16T05:59:09;0.43;;;0.22;;
64208;SDS011;50527;52.414;13.226;2024-01-16T06:01:34;0.28;;;0.20;;
64208;SDS011;50527;52.414;13.226;2024-01-16T06:04:00;0.15;;;0.10;;
64208;SDS011;50527;52.414;13.226;2024-01-16T06:06:25;0.10;;;0.00;;
64208;SDS011;50527;52.414;13.226;2024-01-16T06:08:51;0.10;;;0.10;;
64208;SDS011;50527;52.414;13.226;2024-01-16T06:11:17;1.40;;;0.28;;
64208;SDS011;50527;52.414;13.226;2024-01-16T06:13:44;2.85;;;0.38;;
64208;SDS011;50527;52.414;13.226;2024-01-16T06:16:09;3.45;;;1.10;;
64208;SDS011;50527;52.414;13.226;2024-01-16T06:18:35;1.75;;;0.68;;
64208;SDS011;50527;52.414;13.226;2024-01-16T06:21:04;0.90;;;0.30;;
64208;SDS011;50527;52.414;13.226;2024-01-16T06:23:29;0.20;;;0.10;;
64208;SDS011;50527;52.414;13.226;2024-01-16T06:25:55;0.55;;;0.22;;
64208;SDS011;50527;52.414;13.226;2024-01-16T06:28:20;0.60;;;0.30;;
64208;SDS011;50527;52.414;13.226;2024-01-16T06:30:46;0.82;;;0.32;;
64208;SDS011;50527;52.414;13.226;2024-01-16T06:33:11;1.48;;;0.50;;
64208;SDS011;50527;52.414;13.226;2024-01-16T06:35:37;1.70;;;0.40;;
64208;SDS011;50527;52.414;13.226;2024-01-16T06:38:03;0.55;;;0.28;;
64208;SDS011;50527;52.414;13.226;2024-01-16T06:40:28;2.35;;;0.43;;
64208;SDS011;50527;52.414;13.226;2024-01-16T06:42:54;0.85;;;0.60;;
64208;SDS011;50527;52.414;13.226;2024-01-16T06:45:19;0.55;;;0.10;;
64208;SDS011;50527;52.414;13.226;2024-01-16T06:47:45;2.60;;;0.30;;
64208;SDS011;50527;52.414;13.226;2024-01-16T06:50:10;0.40;;;0.20;;
64208;SDS011;50527;52.414;13.226;2024-01-16T06:52:36;0.00;;;0.00;;
64208;SDS011;50527;52.414;13.226;2024-01-16T06:55:01;0.90;;;0.28;;
64208;SDS011;50527;52.414;13.226;2024-01-16T06:57:27;0.65;;;0.30;;
64208;SDS011;50527;52.414;13.226;2024-01-16T06:59:53;1.08;;;0.40;;
64208;SDS011;50527;52.414;13.226;2024-01-16T07:02:18;4.45;;;0.40;;
64208;SDS011;50527;52.414;13.226;2024-01-16T07:04:44;1.90;;;0.32;;
64208;SDS011;50527;52.414;13.226;2024-01-16T07:07:09;1.17;;;0.50;;
64208;SDS011;50527;52.414;13.226;2024-01-16T07:09:35;0.50;;;0.20;;
64208;SDS011;50527;52.414;13.226;2024-01-16T07:12:00;1.30;;;0.32;;
64208;SDS011;50527;52.414;13.226;2024-01-16T07:14:27;0.30;;;0.20;;
64208;SDS011;50527;52.414;13.226;2024-01-16T07:16:53;0.32;;;0.17;;
64208;SDS011;50527;52.414;13.226;2024-01-16T07:19:18;0.50;;;0.38;;
64208;SDS011;50527;52.414;13.226;2024-01-16T07:21:44;0.73;;;0.25;;
64208;SDS011;50527;52.414;13.226;2024-01-16T07:24:09;1.15;;;0.40;;
64208;SDS011;50527;52.414;13.226;2024-01-16T07:26:35;1.15;;;0.63;;
64208;SDS011;50527;52.414;13.226;2024-01-16T07:29:01;0.88;;;0.40;;
64208;SDS011;50527;52.414;13.226;2024-01-16T07:31:26;1.13;;;0.30;;
64208;SDS011;50527;52.414;13.226;2024-01-16T07:33:52;0.57;;;0.30;;
64208;SDS011;50527;52.414;13.226;2024-01-16T07:36:17;3.33;;;0.38;;
64208;SDS011;50527;52.414;13.226;2024-01-16T07:38:43;3.53;;;0.70;;
64208;SDS011;50527;52.414;13.226;2024-01-16T07:41:08;2.13;;;0.88;;
64208;SDS011;50527;52.414;13.226;2024-01-16T07:43:34;0.95;;;0.40;;
64208;SDS011;50527;52.414;13.226;2024-01-16T07:46:01;0.55;;;0.32;;
64208;SDS011;50527;52.414;13.226;2024-01-16T07:48:27;1.25;;;0.50;;
64208;SDS011;50527;52.414;13.226;2024-01-16T07:50:53;2.35;;;0.50;;
64208;SDS011;50527;52.414;13.226;2024-01-16T07:53:18;1.42;;;0.50;;
64208;SDS011;50527;52.414;13.226;2024-01-16T07:55:44;0.95;;;0.60;;
64208;SDS011;50527;52.414;13.226;2024-01-16T07:58:10;0.88;;;0.50;;
64208;SDS011;50527;52.414;13.226;2024-01-16T08:00:36;0.70;;;0.40;;
64208;SDS011;50527;52.414;13.226;2024-01-16T08:03:02;2.22;;;0.60;;
64208;SDS011;50527;52.414;13.226;2024-01-16T08:05:28;2.35;;;0.90;;
64208;SDS011;50527;52.414;13.226;2024-01-16T08:07:55;1.83;;;0.60;;
64208;SDS011;50527;52.414;13.226;2024-01-16T08:10:23;1.95;;;0.50;;
64208;SDS011;50527;52.414;13.226;2024-01-16T08:12:49;1.55;;;0.65;;
64208;SDS011;50527;52.414;13.226;2024-01-16T08:15:15;1.75;;;0.70;;
64208;SDS011;50527;52.414;13.226;2024-01-16T08:17:40;1.60;;;0.60;;
64208;SDS011;50527;52.414;13.226;2024-01-16T08:20:06;5.05;;;1.02;;
64208;SDS011;50527;52.414;13.226;2024-01-16T08:22:34;1.65;;;0.68;;
64208;SDS011;50527;52.414;13.226;2024-01-16T08:25:03;1.48;;;0.70;;
64208;SDS011;50527;52.414;13.226;2024-01-16T08:27:31;1.88;;;0.90;;
64208;SDS011;50527;52.414;13.226;2024-01-16T08:29:57;4.90;;;1.05;;
64208;SDS011;50527;52.414;13.226;2024-01-16T08:32:23;1.08;;;0.50;;
64208;SDS011;50527;52.414;13.226;2024-01-16T08:34:48;2.33;;;0.90;;
64208;SDS011;50527;52.414;13.226;2024-01-16T08:37:14;1.92;;;0.65;;
64208;SDS011;50527;52.414;13.226;2024-01-16T08:39:39;1.65;;;0.75;;
64208;SDS011;50527;52.414;13.226;2024-01-16T08:42:05;2.10;;;0.75;;
64208;SDS011;50527;52.414;13.226;2024-01-16T08:44:31;1.90;;;0.70;;
64208;SDS011;50527;52.414;13.226;2024-01-16T08:46:56;3.10;;;1.08;;
64208;SDS011;50527;52.414;13.226;2024-01-16T08:49:24;2.47;;;0.75;;
64208;SDS011;50527;52.414;13.226;2024-01-16T08:51:49;3.22;;;1.10;;
64208;SDS011;50527;52.414;13.226;2024-01-16T08:54:15;2.25;;;0.70;;
64208;SDS011;50527;52.414;13.226;2024-01-16T08:56:41;2.10;;;0.73;;
64208;SDS011;50527;52.414;13.226;2024-01-16T08:59:06;2.58;;;0.73;;
64208;SDS011;50527;52.414;13.226;2024-01-16T09:01:33;2.70;;;0.52;;
64208;SDS011;50527;52.414;13.226;2024-01-16T09:03:58;1.85;;;0.60;;
64208;SDS011;50527;52.414;13.226;2024-01-16T09:06:24;2.15;;;0.55;;
64208;SDS011;50527;52.414;13.226;2024-01-16T09:08:49;3.03;;;0.50;;
64208;SDS011;50527;52.414;13.226;2024-01-16T09:11:15;2.17;;;0.60;;
64208;SDS011;50527;52.414;13.226;2024-01-16T09:13:40;2.63;;;1.10;;
64208;SDS011;50527;52.414;13.226;2024-01-16T09:16:06;1.83;;;0.70;;
64208;SDS011;50527;52.414;13.226;2024-01-16T09:18:31;2.17;;;0.75;;
64208;SDS011;50527;52.414;13.226;2024-01-16T09:20:57;3.63;;;0.80;;
64208;SDS011;50527;52.414;13.226;2024-01-16T09:23:22;2.25;;;0.80;;
64208;SDS011;50527;52.414;13.226;2024-01-16T09:25:48;0.80;;;0.30;;
64208;SDS011;50527;52.414;13.226;2024-01-16T09:28:14;3.45;;;0.80;;
64208;SDS011;50527;52.414;13.226;2024-01-16T09:30:41;1.77;;;0.73;;
64208;SDS011;50527;52.414;13.226;2024-01-16T09:33:07;2.47;;;0.63;;
64208;SDS011;50527;52.414;13.226;2024-01-16T09:35:35;3.28;;;0.50;;
64208;SDS011;50527;52.414;13.226;2024-01-16T09:38:00;1.73;;;0.73;;
64208;SDS011;50527;52.414;13.226;2024-01-16T09:40:26;1.30;;;0.50;;
64208;SDS011;50527;52.414;13.226;2024-01-16T09:42:52;3.00;;;0.90;;
64208;SDS011;50527;52.414;13.226;2024-01-16T09:45:20;5.07;;;0.57;;
64208;SDS011;50527;52.414;13.226;2024-01-16T09:47:49;1.50;;;0.43;;
64208;SDS011;50527;52.414;13.226;2024-01-16T09:50:16;1.60;;;0.52;;
64208;SDS011;50527;52.414;13.226;2024-01-16T09:52:45;5.55;;;0.50;;
64208;SDS011;50527;52.414;13.226;2024-01-16T09:55:11;1.33;;;0.70;;
